sensor_id;sensor_type;location;lat;lon;timestamp;pressure;altitude;pressure_sealevel;temperature;humidity
68891;BME280;55932;48.702;8.884;2022-10-31T00:07:25;96620;;;9.9;71.5
68891;BME280;55932;48.702;8.884;2022-10-31T00:09:50;96620;;;9.9;71
68891;BME280;55932;48.702;8.884;2022-10-31T00:12:10;96620;;;9.9;71
68891;BME280;55932;48.702;8.884;2022-10-31T00:14:40;96620;;;9.8;71.5
68891;BME280;55932;48.702;8.884;2022-10-31T00:17:10;96620;;;9.8;71
68891;BME280;55932;48.702;8.884;2022-10-31T00:19:29;96630;;;9.8;71
68891;BME280;55932;48.702;8.884;2022-10-31T00:21:59;96620;;;9.8;71
68891;BME280;55932;48.702;8.884;2022-10-31T00:24:30;96620;;;9.8;71
68891;BME280;55932;48.702;8.884;2022-10-31T00:29:30;96620;;;9.7;71
68891;BME280;55932;48.702;8.884;2022-10-31T00:32:01;96620;;;9.8;71
68891;BME280;55932;48.702;8.884;2022-10-31T00:37:33;96610;;;9.9;71
68891;BME280;55932;48.702;8.884;2022-10-31T00:40:05;96610;;;9.9;70.5
68891;BME280;55932;48.702;8.884;2022-10-31T00:44:45;96620;;;9.8;71
68891;BME280;55932;48.702;8.884;2022-10-31T00:47:15;96620;;;9.8;71
68891;BME280;55932;48.702;8.884;2022-10-31T00:49:45;96620;;;9.9;70.5
68891;BME280;55932;48.702;8.884;2022-10-31T00:52:15;96620;;;9.9;70.5
68891;BME280;55932;48.702;8.884;2022-10-31T00:54:45;96610;;;9.9;70.5
68891;BME280;55932;48.702;8.884;2022-10-31T00:57:05;96610;;;9.9;70.5
68891;BME280;55932;48.702;8.884;2022-10-31T00:59:35;96620;;;9.8;71
68891;BME280;55932;48.702;8.884;2022-10-31T01:02:06;96610;;;9.7;71
68891;BME280;55932;48.702;8.884;2022-10-31T01:04:36;96610;;;9.7;71
68891;BME280;55932;48.702;8.884;2022-10-31T01:07:07;96610;;;9.7;71
68891;BME280;55932;48.702;8.884;2022-10-31T01:09:37;96610;;;9.7;71
68891;BME280;55932;48.702;8.884;2022-10-31T01:12:08;96610;;;9.8;70.5
68891;BME280;55932;48.702;8.884;2022-10-31T01:14:42;96610;;;9.7;71
68891;BME280;55932;48.702;8.884;2022-10-31T01:17:15;96610;;;9.8;70.5
68891;BME280;55932;48.702;8.884;2022-10-31T01:19:39;96610;;;9.9;70.5
68891;BME280;55932;48.702;8.884;2022-10-31T01:22:10;96610;;;9.8;70.5
68891;BME280;55932;48.702;8.884;2022-10-31T01:27:22;96610;;;9.8;70.5
68891;BME280;55932;48.702;8.884;2022-10-31T01:32:32;96610;;;9.7;71
68891;BME280;55932;48.702;8.884;2022-10-31T01:34:53;96610;;;9.7;71
68891;BME280;55932;48.702;8.884;2022-10-31T01:37:23;96600;;;9.7;71
68891;BME280;55932;48.702;8.884;2022-10-31T01:42:34;96600;;;9.6;71
68891;BME280;55932;48.702;8.884;2022-10-31T01:45:14;96600;;;9.6;71
68891;BME280;55932;48.702;8.884;2022-10-31T01:47:38;96600;;;9.6;71
68891;BME280;55932;48.702;8.884;2022-10-31T01:52:27;96590;;;9.9;70.5
68891;BME280;55932;48.702;8.884;2022-10-31T01:55:05;96590;;;10.1;70
68891;BME280;55932;48.702;8.884;2022-10-31T01:57:35;96590;;;10.4;70
68891;BME280;55932;48.702;8.884;2022-10-31T01:59:57;96600;;;10.4;70
68891;BME280;55932;48.702;8.884;2022-10-31T02:02:26;96590;;;10.3;70.5
68891;BME280;55932;48.702;8.884;2022-10-31T02:04:56;96590;;;10.3;70.5
68891;BME280;55932;48.702;8.884;2022-10-31T02:07:29;96590;;;10.2;70.5
68891;BME280;55932;48.702;8.884;2022-10-31T02:09:56;96590;;;10.1;71
68891;BME280;55932;48.702;8.884;2022-10-31T02:12:26;96590;;;10.1;70.5
68891;BME280;55932;48.702;8.884;2022-10-31T02:14:56;96590;;;10;71
68891;BME280;55932;48.702;8.884;2022-10-31T02:17:26;96590;;;9.8;71
68891;BME280;55932;48.702;8.884;2022-10-31T02:20:11;96600;;;9.7;71
68891;BME280;55932;48.702;8.884;2022-10-31T02:25:12;96600;;;9.6;71
68891;BME280;55932;48.702;8.884;2022-10-31T02:30:03;96590;;;9.6;71
68891;BME280;55932;48.702;8.884;2022-10-31T02:32:34;96590;;;9.6;71
68891;BME280;55932;48.702;8.884;2022-10-31T02:37:20;96590;;;9.6;71
68891;BME280;55932;48.702;8.884;2022-10-31T02:45:55;96580;;;9.6;71
68891;BME280;55932;48.702;8.884;2022-10-31T02:47:24;96590;;;9.6;71
68891;BME280;55932;48.702;8.884;2022-10-31T02:50:33;96590;;;9.5;71
68891;BME280;55932;48.702;8.884;2022-10-31T02:57:32;96590;;;9.5;71
68891;BME280;55932;48.702;8.884;2022-10-31T03:00:04;96590;;;9.4;71
68891;BME280;55932;48.702;8.884;2022-10-31T03:02:37;96580;;;9.5;71
68891;BME280;55932;48.702;8.884;2022-10-31T03:10:00;96570;;;9.4;71
68891;BME280;55932;48.702;8.884;2022-10-31T03:12:26;96570;;;9.5;70.5
68891;BME280;55932;48.702;8.884;2022-10-31T03:15:26;96580;;;9.5;71
68891;BME280;55932;48.702;8.884;2022-10-31T03:17:26;96580;;;9.5;71
68891;BME280;55932;48.702;8.884;2022-10-31T03:20:06;96580;;;9.6;70.5
68891;BME280;55932;48.702;8.884;2022-10-31T03:22:36;96580;;;9.6;70.5
68891;BME280;55932;48.702;8.884;2022-10-31T03:25:06;96580;;;9.6;71
68891;BME280;55932;48.702;8.884;2022-10-31T03:27:26;96580;;;9.6;70.5
68891;BME280;55932;48.702;8.884;2022-10-31T03:37:27;96580;;;9.2;71
68891;BME280;55932;48.702;8.884;2022-10-31T03:40:14;96580;;;9.2;71
68891;BME280;55932;48.702;8.884;2022-10-31T03:42:29;96580;;;9.2;71
68891;BME280;55932;48.702;8.884;2022-10-31T03:47:29;96580;;;9.2;71
68891;BME280;55932;48.702;8.884;2022-10-31T03:50:00;96580;;;9.3;71
68891;BME280;55932;48.702;8.884;2022-10-31T03:52:33;96580;;;9.3;71
68891;BME280;55932;48.702;8.884;2022-10-31T03:55:07;96580;;;9.3;71
68891;BME280;55932;48.702;8.884;2022-10-31T03:57:34;96580;;;9.3;71
68891;BME280;55932;48.702;8.884;2022-10-31T04:00:05;96580;;;9.3;71
68891;BME280;55932;48.702;8.884;2022-10-31T04:05:03;96570;;;9.2;71
68891;BME280;55932;48.702;8.884;2022-10-31T04:07:35;96570;;;9.1;71.5
68891;BME280;55932;48.702;8.884;2022-10-31T04:10:05;96570;;;9;71.5
68891;BME280;55932;48.702;8.884;2022-10-31T04:12:34;96570;;;9;71
68891;BME280;55932;48.702;8.884;2022-10-31T04:25:18;96560;;;8.9;71.5
68891;BME280;55932;48.702;8.884;2022-10-31T04:27:48;96560;;;9;71
68891;BME280;55932;48.702;8.884;2022-10-31T04:30:18;96560;;;9;71
68891;BME280;55932;48.702;8.884;2022-10-31T04:35:07;96550;;;8.9;71
68891;BME280;55932;48.702;8.884;2022-10-31T04:37:38;96560;;;8.9;71
68891;BME280;55932;48.702;8.884;2022-10-31T04:40:08;96560;;;8.8;71
68891;BME280;55932;48.702;8.884;2022-10-31T04:42:39;96550;;;8.8;71
68891;BME280;55932;48.702;8.884;2022-10-31T04:45:09;96550;;;8.9;71
68891;BME280;55932;48.702;8.884;2022-10-31T04:47:40;96540;;;9;71
68891;BME280;55932;48.702;8.884;2022-10-31T04:50:10;96540;;;9.1;70.5
68891;BME280;55932;48.702;8.884;2022-10-31T04:52:42;96540;;;9.1;71
68891;BME280;55932;48.702;8.884;2022-10-31T05:00:13;96530;;;9;71
68891;BME280;55932;48.702;8.884;2022-10-31T05:05:26;96530;;;8.8;71
68891;BME280;55932;48.702;8.884;2022-10-31T05:07:55;96530;;;8.7;71
68891;BME280;55932;48.702;8.884;2022-10-31T05:10:26;96530;;;8.7;71
68891;BME280;55932;48.702;8.884;2022-10-31T05:12:56;96530;;;8.7;71
68891;BME280;55932;48.702;8.884;2022-10-31T05:17:44;96540;;;8.8;71
68891;BME280;55932;48.702;8.884;2022-10-31T05:20:15;96530;;;8.7;71
68891;BME280;55932;48.702;8.884;2022-10-31T05:27:47;96530;;;8.6;71
68891;BME280;55932;48.702;8.884;2022-10-31T05:30:18;96530;;;8.5;71.5
68891;BME280;55932;48.702;8.884;2022-10-31T05:32:48;96530;;;8.5;71.5
68891;BME280;55932;48.702;8.884;2022-10-31T05:35:30;96530;;;8.5;71.5
68891;BME280;55932;48.702;8.884;2022-10-31T05:37:59;96530;;;8.6;71
68891;BME280;55932;48.702;8.884;2022-10-31T05:40:29;96530;;;8.6;71
68891;BME280;55932;48.702;8.884;2022-10-31T05:42:50;96530;;;8.5;71
68891;BME280;55932;48.702;8.884;2022-10-31T05:45:19;96530;;;8.5;71.5
68891;BME280;55932;48.702;8.884;2022-10-31T05:52:54;96520;;;8.6;71
68891;BME280;55932;48.702;8.884;2022-10-31T05:55:21;96520;;;8.7;71
68891;BME280;55932;48.702;8.884;2022-10-31T05:57:52;96520;;;8.6;71
68891;BME280;55932;48.702;8.884;2022-10-31T06:00:22;96520;;;8.6;71
68891;BME280;55932;48.702;8.884;2022-10-31T06:02:59;96520;;;8.5;71.5
68891;BME280;55932;48.702;8.884;2022-10-31T06:05:23;96520;;;8.6;71
68891;BME280;55932;48.702;8.884;2022-10-31T06:07:54;96520;;;8.6;71
68891;BME280;55932;48.702;8.884;2022-10-31T06:10:24;96520;;;8.6;71
68891;BME280;55932;48.702;8.884;2022-10-31T06:12:54;96510;;;8.7;71
68891;BME280;55932;48.702;8.884;2022-10-31T06:20:26;96500;;;9.1;71
68891;BME280;55932;48.702;8.884;2022-10-31T06:22:56;96510;;;9.1;71
68891;BME280;55932;48.702;8.884;2022-10-31T06:25:27;96510;;;9;71
68891;BME280;55932;48.702;8.884;2022-10-31T06:28:02;96510;;;8.8;71.5
68891;BME280;55932;48.702;8.884;2022-10-31T06:30:28;96510;;;8.8;71.5
68891;BME280;55932;48.702;8.884;2022-10-31T06:35:44;96500;;;9.1;71
68891;BME280;55932;48.702;8.884;2022-10-31T06:40:41;96500;;;9.4;70.5
68891;BME280;55932;48.702;8.884;2022-10-31T06:43:12;96500;;;9.5;70.5
68891;BME280;55932;48.702;8.884;2022-10-31T06:45:42;96500;;;9.6;70.5
68891;BME280;55932;48.702;8.884;2022-10-31T06:55:54;96510;;;9.7;70.5
68891;BME280;55932;48.702;8.884;2022-10-31T06:58:35;96510;;;9.7;70.5
68891;BME280;55932;48.702;8.884;2022-10-31T07:05:51;96510;;;10;70
68891;BME280;55932;48.702;8.884;2022-10-31T07:08:15;96520;;;10.2;70
68891;BME280;55932;48.702;8.884;2022-10-31T07:10:50;96520;;;10.3;70
68891;BME280;55932;48.702;8.884;2022-10-31T07:25:58;96520;;;10.8;69.5
68891;BME280;55932;48.702;8.884;2022-10-31T07:28:29;96510;;;11;69.5
68891;BME280;55932;48.702;8.884;2022-10-31T07:33:18;96520;;;11.3;69.5
68891;BME280;55932;48.702;8.884;2022-10-31T07:35:48;96520;;;11.5;69
68891;BME280;55932;48.702;8.884;2022-10-31T07:38:28;96520;;;11.6;69
68891;BME280;55932;48.702;8.884;2022-10-31T07:40:37;96520;;;11.7;69
68891;BME280;55932;48.702;8.884;2022-10-31T07:43:08;96520;;;11.9;69
68891;BME280;55932;48.702;8.884;2022-10-31T07:50:43;96520;;;12.3;69
68891;BME280;55932;48.702;8.884;2022-10-31T07:53:11;96510;;;12.6;69
68891;BME280;55932;48.702;8.884;2022-10-31T07:55:41;96510;;;12.9;68.5
68891;BME280;55932;48.702;8.884;2022-10-31T08:00:53;96510;;;13.5;68
68891;BME280;55932;48.702;8.884;2022-10-31T08:03:23;96510;;;13.7;67.5
68891;BME280;55932;48.702;8.884;2022-10-31T08:05:53;96510;;;13.9;67.5
68891;BME280;55932;48.702;8.884;2022-10-31T08:15:43;96510;;;13.9;68.5
68891;BME280;55932;48.702;8.884;2022-10-31T08:18:14;96510;;;14.1;68.5
68891;BME280;55932;48.702;8.884;2022-10-31T08:20:44;96500;;;14.1;68
68891;BME280;55932;48.702;8.884;2022-10-31T08:23:15;96500;;;14;68.5
68891;BME280;55932;48.702;8.884;2022-10-31T08:25:45;96500;;;14.1;68.5
68891;BME280;55932;48.702;8.884;2022-10-31T08:30:57;96500;;;14.4;67.5
68891;BME280;55932;48.702;8.884;2022-10-31T08:33:27;96500;;;14.6;67.5
68891;BME280;55932;48.702;8.884;2022-10-31T08:35:58;96490;;;15;67
68891;BME280;55932;48.702;8.884;2022-10-31T08:43:17;96490;;;16.8;67
68891;BME280;55932;48.702;8.884;2022-10-31T08:45:48;96480;;;17.6;66.5
68891;BME280;55932;48.702;8.884;2022-10-31T08:48:18;96480;;;17.8;66
68891;BME280;55932;48.702;8.884;2022-10-31T08:50:49;96480;;;17.8;66
68891;BME280;55932;48.702;8.884;2022-10-31T08:58:31;96470;;;17.8;66.5
68891;BME280;55932;48.702;8.884;2022-10-31T09:01:10;96470;;;17.8;68
68891;BME280;55932;48.702;8.884;2022-10-31T09:03:40;96470;;;18.3;67.5
68891;BME280;55932;48.702;8.884;2022-10-31T09:06:02;96470;;;18.5;68
68891;BME280;55932;48.702;8.884;2022-10-31T09:08:32;96470;;;18.6;68
68891;BME280;55932;48.702;8.884;2022-10-31T09:11:02;96470;;;18.5;68
68891;BME280;55932;48.702;8.884;2022-10-31T09:13:32;96470;;;18.4;68.5
68891;BME280;55932;48.702;8.884;2022-10-31T09:18:22;96470;;;18.6;68
68891;BME280;55932;48.702;8.884;2022-10-31T09:28:24;96460;;;20.5;64
68891;BME280;55932;48.702;8.884;2022-10-31T09:30:54;96450;;;20.9;64
68891;BME280;55932;48.702;8.884;2022-10-31T09:33:24;96450;;;21.4;64
68891;BME280;55932;48.702;8.884;2022-10-31T09:35:55;96450;;;21.2;64
68891;BME280;55932;48.702;8.884;2022-10-31T09:38:25;96450;;;20.3;65
68891;BME280;55932;48.702;8.884;2022-10-31T09:40:57;96460;;;19.7;66
68891;BME280;55932;48.702;8.884;2022-10-31T09:43:30;96460;;;19.2;67
68891;BME280;55932;48.702;8.884;2022-10-31T09:48:42;96450;;;19.5;67
68891;BME280;55932;48.702;8.884;2022-10-31T09:53:50;96450;;;20.1;66.5
68891;BME280;55932;48.702;8.884;2022-10-31T09:56:11;96450;;;20.3;66
68891;BME280;55932;48.702;8.884;2022-10-31T09:58:41;96450;;;20.3;66
68891;BME280;55932;48.702;8.884;2022-10-31T10:03:31;96440;;;20.5;66
68891;BME280;55932;48.702;8.884;2022-10-31T10:06:04;96450;;;20.6;67
68891;BME280;55932;48.702;8.884;2022-10-31T10:11:05;96440;;;21;66.5
68891;BME280;55932;48.702;8.884;2022-10-31T10:18:36;96440;;;20.2;69
68891;BME280;55932;48.702;8.884;2022-10-31T10:21:09;96430;;;19.8;69.5
68891;BME280;55932;48.702;8.884;2022-10-31T10:31:32;96430;;;21.4;67
68891;BME280;55932;48.702;8.884;2022-10-31T10:36:29;96430;;;20.9;68.5
68891;BME280;55932;48.702;8.884;2022-10-31T10:41:29;96420;;;20.6;69
68891;BME280;55932;48.702;8.884;2022-10-31T10:43:58;96420;;;20.5;69
68891;BME280;55932;48.702;8.884;2022-10-31T10:46:43;96420;;;20.4;69
68891;BME280;55932;48.702;8.884;2022-10-31T10:49:11;96420;;;20.1;69
68891;BME280;55932;48.702;8.884;2022-10-31T10:51:20;96410;;;20.2;69
68891;BME280;55932;48.702;8.884;2022-10-31T10:53:55;96410;;;20.4;69
68891;BME280;55932;48.702;8.884;2022-10-31T10:56:25;96410;;;20.6;68.5
68891;BME280;55932;48.702;8.884;2022-10-31T11:01:12;96390;;;21.1;68
68891;BME280;55932;48.702;8.884;2022-10-31T11:03:38;96390;;;21.2;68
68891;BME280;55932;48.702;8.884;2022-10-31T11:11:18;96390;;;20.8;68.5
68891;BME280;55932;48.702;8.884;2022-10-31T11:13:40;96380;;;20.9;68.5
68891;BME280;55932;48.702;8.884;2022-10-31T11:18:52;96380;;;20.6;68
68891;BME280;55932;48.702;8.884;2022-10-31T11:21:25;96380;;;20.8;67
68891;BME280;55932;48.702;8.884;2022-10-31T11:24:24;96370;;;21.1;66.5
68891;BME280;55932;48.702;8.884;2022-10-31T11:26:19;96370;;;21.2;66.5
68891;BME280;55932;48.702;8.884;2022-10-31T11:28:42;96360;;;21.1;68
68891;BME280;55932;48.702;8.884;2022-10-31T11:38:45;96370;;;20.2;68.5
68891;BME280;55932;48.702;8.884;2022-10-31T11:41:16;96360;;;20.3;68
68891;BME280;55932;48.702;8.884;2022-10-31T11:46:32;96360;;;20.2;68
68891;BME280;55932;48.702;8.884;2022-10-31T11:48:57;96360;;;20.1;68.5
68891;BME280;55932;48.702;8.884;2022-10-31T11:51:31;96360;;;20;68.5
68891;BME280;55932;48.702;8.884;2022-10-31T11:53:51;96350;;;20.1;68.5
68891;BME280;55932;48.702;8.884;2022-10-31T11:56:18;96340;;;20.4;68.5
68891;BME280;55932;48.702;8.884;2022-10-31T12:06:22;96330;;;20.9;68
68891;BME280;55932;48.702;8.884;2022-10-31T12:08:51;96330;;;21.1;67.5
68891;BME280;55932;48.702;8.884;2022-10-31T12:11:40;96330;;;20.9;68
68891;BME280;55932;48.702;8.884;2022-10-31T12:16:36;96320;;;20.5;68
68891;BME280;55932;48.702;8.884;2022-10-31T12:21:39;96310;;;20;68
68891;BME280;55932;48.702;8.884;2022-10-31T12:24:12;96310;;;19.9;68
68891;BME280;55932;48.702;8.884;2022-10-31T12:26:46;96310;;;20;68
68891;BME280;55932;48.702;8.884;2022-10-31T12:29:09;96310;;;19.8;68
68891;BME280;55932;48.702;8.884;2022-10-31T12:39:14;96300;;;19.5;68
68891;BME280;55932;48.702;8.884;2022-10-31T12:46:49;96280;;;19.4;68
68891;BME280;55932;48.702;8.884;2022-10-31T12:49:12;96280;;;19.4;68.5
68891;BME280;55932;48.702;8.884;2022-10-31T12:52:00;96270;;;19.3;68.5
68891;BME280;55932;48.702;8.884;2022-10-31T12:54:15;96260;;;19.3;68.5
68891;BME280;55932;48.702;8.884;2022-10-31T12:56:47;96260;;;19.3;68.5
68891;BME280;55932;48.702;8.884;2022-10-31T12:59:17;96260;;;19.4;68
68891;BME280;55932;48.702;8.884;2022-10-31T13:01:45;96250;;;19.5;67.5
68891;BME280;55932;48.702;8.884;2022-10-31T13:06:34;96250;;;19.3;68
68891;BME280;55932;48.702;8.884;2022-10-31T13:09:02;96250;;;19.3;68
68891;BME280;55932;48.702;8.884;2022-10-31T13:11:34;96250;;;19.5;68
68891;BME280;55932;48.702;8.884;2022-10-31T13:14:03;96260;;;20;67.5
68891;BME280;55932;48.702;8.884;2022-10-31T13:16:36;96250;;;20.4;67
68891;BME280;55932;48.702;8.884;2022-10-31T13:19:04;96260;;;20.6;67
68891;BME280;55932;48.702;8.884;2022-10-31T13:21:35;96250;;;21.6;67.5
68891;BME280;55932;48.702;8.884;2022-10-31T13:31:55;96230;;;25.3;63.5
68891;BME280;55932;48.702;8.884;2022-10-31T13:34:21;96230;;;24.7;64.5
68891;BME280;55932;48.702;8.884;2022-10-31T13:36:56;96210;;;24.4;64.5
68891;BME280;55932;48.702;8.884;2022-10-31T13:41:41;96200;;;23.3;65
68891;BME280;55932;48.702;8.884;2022-10-31T13:44:10;96200;;;23.8;66
68891;BME280;55932;48.702;8.884;2022-10-31T13:46:38;96210;;;23.6;65
68891;BME280;55932;48.702;8.884;2022-10-31T13:54:29;96200;;;21.1;68
68891;BME280;55932;48.702;8.884;2022-10-31T13:56:38;96200;;;21;68
68891;BME280;55932;48.702;8.884;2022-10-31T13:59:16;96210;;;21;67.5
68891;BME280;55932;48.702;8.884;2022-10-31T14:04:22;96200;;;22.1;68
68891;BME280;55932;48.702;8.884;2022-10-31T14:06:54;96200;;;22.7;66.5
68891;BME280;55932;48.702;8.884;2022-10-31T14:09:22;96200;;;21.9;68
68891;BME280;55932;48.702;8.884;2022-10-31T14:11:40;96190;;;22.2;68
68891;BME280;55932;48.702;8.884;2022-10-31T14:14:11;96190;;;22.3;67
68891;BME280;55932;48.702;8.884;2022-10-31T14:21:43;96180;;;23.9;65
68891;BME280;55932;48.702;8.884;2022-10-31T14:24:30;96180;;;23.2;65.5
68891;BME280;55932;48.702;8.884;2022-10-31T14:27:47;96180;;;23.8;66.5
68891;BME280;55932;48.702;8.884;2022-10-31T14:29:27;96170;;;24;65.5
68891;BME280;55932;48.702;8.884;2022-10-31T14:32:19;96180;;;23.3;66
68891;BME280;55932;48.702;8.884;2022-10-31T14:34:30;96180;;;22.4;66
68891;BME280;55932;48.702;8.884;2022-10-31T14:38:03;96180;;;21.6;67.5
68891;BME280;55932;48.702;8.884;2022-10-31T14:41:53;96170;;;21.7;67
68891;BME280;55932;48.702;8.884;2022-10-31T14:46:50;96180;;;20.5;67.5
68891;BME280;55932;48.702;8.884;2022-10-31T14:49:25;96180;;;20;68.5
68891;BME280;55932;48.702;8.884;2022-10-31T14:51:47;96180;;;19.6;69.5
68891;BME280;55932;48.702;8.884;2022-10-31T14:54:28;96180;;;19.4;69
68891;BME280;55932;48.702;8.884;2022-10-31T14:56:50;96180;;;19.1;69
68891;BME280;55932;48.702;8.884;2022-10-31T14:59:20;96180;;;18.9;69.5
68891;BME280;55932;48.702;8.884;2022-10-31T15:02:07;96180;;;18.7;69.5
68891;BME280;55932;48.702;8.884;2022-10-31T15:04:31;96180;;;18.5;69.5
68891;BME280;55932;48.702;8.884;2022-10-31T15:07:13;96180;;;18.2;69.5
68891;BME280;55932;48.702;8.884;2022-10-31T15:11:50;96170;;;17.7;70
68891;BME280;55932;48.702;8.884;2022-10-31T15:14:22;96170;;;17.6;70
68891;BME280;55932;48.702;8.884;2022-10-31T15:16:51;96160;;;17.6;70
68891;BME280;55932;48.702;8.884;2022-10-31T15:19:23;96160;;;17.4;70
68891;BME280;55932;48.702;8.884;2022-10-31T15:21:53;96160;;;17.3;70
68891;BME280;55932;48.702;8.884;2022-10-31T15:24:24;96160;;;17.2;70
68891;BME280;55932;48.702;8.884;2022-10-31T15:29:35;96160;;;17.1;70
68891;BME280;55932;48.702;8.884;2022-10-31T15:34:44;96160;;;17;70
68891;BME280;55932;48.702;8.884;2022-10-31T15:37:09;96160;;;16.9;70
68891;BME280;55932;48.702;8.884;2022-10-31T15:39:36;96160;;;16.7;70
68891;BME280;55932;48.702;8.884;2022-10-31T15:44:25;96160;;;16.7;70
68891;BME280;55932;48.702;8.884;2022-10-31T15:46:56;96160;;;16.7;69.5
68891;BME280;55932;48.702;8.884;2022-10-31T15:49:42;96160;;;16.6;69.5
68891;BME280;55932;48.702;8.884;2022-10-31T15:56:57;96150;;;15.9;70
68891;BME280;55932;48.702;8.884;2022-10-31T15:59:27;96150;;;15.6;70.5
68891;BME280;55932;48.702;8.884;2022-10-31T16:05:00;96130;;;15.1;70.5
68891;BME280;55932;48.702;8.884;2022-10-31T16:07:31;96120;;;14.8;71
68891;BME280;55932;48.702;8.884;2022-10-31T16:17:13;96120;;;14.1;71.5
68891;BME280;55932;48.702;8.884;2022-10-31T16:19:51;96130;;;13.9;71.5
68891;BME280;55932;48.702;8.884;2022-10-31T16:22:13;96130;;;13.8;71.5
68891;BME280;55932;48.702;8.884;2022-10-31T16:24:32;96120;;;13.6;71.5
68891;BME280;55932;48.702;8.884;2022-10-31T16:27:03;96120;;;13.6;71.5
68891;BME280;55932;48.702;8.884;2022-10-31T16:29:38;96120;;;13.4;71.5
68891;BME280;55932;48.702;8.884;2022-10-31T16:32:03;96120;;;13.4;71.5
68891;BME280;55932;48.702;8.884;2022-10-31T16:34:33;96120;;;13.3;71
68891;BME280;55932;48.702;8.884;2022-10-31T16:37:04;96120;;;13.2;71
68891;BME280;55932;48.702;8.884;2022-10-31T16:39:34;96120;;;13.2;71
68891;BME280;55932;48.702;8.884;2022-10-31T16:42:07;96120;;;13.1;71
68891;BME280;55932;48.702;8.884;2022-10-31T16:49:36;96120;;;13.1;71
68891;BME280;55932;48.702;8.884;2022-10-31T16:52:27;96120;;;13.1;71
68891;BME280;55932;48.702;8.884;2022-10-31T16:54:49;96120;;;13.2;71
68891;BME280;55932;48.702;8.884;2022-10-31T17:02:20;96130;;;13.2;70.5
68891;BME280;55932;48.702;8.884;2022-10-31T17:07:20;96130;;;13.3;70.5
68891;BME280;55932;48.702;8.884;2022-10-31T17:09:51;96130;;;13.4;70
68891;BME280;55932;48.702;8.884;2022-10-31T17:12:21;96140;;;13.6;70
68891;BME280;55932;48.702;8.884;2022-10-31T17:14:51;96150;;;13.6;70
68891;BME280;55932;48.702;8.884;2022-10-31T17:19:40;96150;;;13.4;70.5
68891;BME280;55932;48.702;8.884;2022-10-31T17:22:11;96140;;;13.4;70.5
68891;BME280;55932;48.702;8.884;2022-10-31T17:24:42;96120;;;13.4;70.5
68891;BME280;55932;48.702;8.884;2022-10-31T17:27:11;96120;;;13.4;70.5
68891;BME280;55932;48.702;8.884;2022-10-31T17:29:42;96120;;;13.3;70.5
68891;BME280;55932;48.702;8.884;2022-10-31T17:32:13;96120;;;13.2;70.5
68891;BME280;55932;48.702;8.884;2022-10-31T17:34:43;96120;;;13.1;70.5
68891;BME280;55932;48.702;8.884;2022-10-31T17:47:27;96120;;;12.9;70.5
68891;BME280;55932;48.702;8.884;2022-10-31T17:49:57;96130;;;12.8;70.5
68891;BME280;55932;48.702;8.884;2022-10-31T17:52:27;96130;;;12.6;71
68891;BME280;55932;48.702;8.884;2022-10-31T17:54:45;96130;;;12.4;71
68891;BME280;55932;48.702;8.884;2022-10-31T17:57:16;96120;;;12.3;71
68891;BME280;55932;48.702;8.884;2022-10-31T18:05:10;96100;;;12.1;71.5
68891;BME280;55932;48.702;8.884;2022-10-31T18:07:40;96090;;;12;71.5
68891;BME280;55932;48.702;8.884;2022-10-31T18:10:20;96090;;;12.2;71
68891;BME280;55932;48.702;8.884;2022-10-31T18:12:30;96090;;;12.2;71
68891;BME280;55932;48.702;8.884;2022-10-31T18:15:00;96090;;;12.2;71
68891;BME280;55932;48.702;8.884;2022-10-31T18:17:31;96090;;;12.1;71
68891;BME280;55932;48.702;8.884;2022-10-31T18:20:01;96080;;;12.1;71
68891;BME280;55932;48.702;8.884;2022-10-31T18:22:20;96090;;;12.1;71
68891;BME280;55932;48.702;8.884;2022-10-31T18:24:50;96080;;;12.2;71
68891;BME280;55932;48.702;8.884;2022-10-31T18:27:21;96070;;;12.3;70.5
68891;BME280;55932;48.702;8.884;2022-10-31T18:29:52;96070;;;12.4;70.5
68891;BME280;55932;48.702;8.884;2022-10-31T18:37:23;96070;;;12.7;70
68891;BME280;55932;48.702;8.884;2022-10-31T18:47:24;96080;;;12.9;70
68891;BME280;55932;48.702;8.884;2022-10-31T18:49:55;96090;;;13.1;70
68891;BME280;55932;48.702;8.884;2022-10-31T18:52:26;96100;;;13.4;69.5
68891;BME280;55932;48.702;8.884;2022-10-31T18:54:56;96120;;;13.7;69
68891;BME280;55932;48.702;8.884;2022-10-31T18:59:57;96110;;;13.7;69.5
68891;BME280;55932;48.702;8.884;2022-10-31T19:02:28;96110;;;13.7;69.5
68891;BME280;55932;48.702;8.884;2022-10-31T19:07:40;96110;;;13.8;69.5
68891;BME280;55932;48.702;8.884;2022-10-31T19:10:10;96100;;;13.8;69.5
68891;BME280;55932;48.702;8.884;2022-10-31T19:12:40;96100;;;13.7;69.5
68891;BME280;55932;48.702;8.884;2022-10-31T19:17:29;96120;;;13.7;69.5
68891;BME280;55932;48.702;8.884;2022-10-31T19:20:00;96130;;;13.7;69.5
68891;BME280;55932;48.702;8.884;2022-10-31T19:25:01;96110;;;13.8;69.5
68891;BME280;55932;48.702;8.884;2022-10-31T19:27:32;96110;;;13.9;69.5
68891;BME280;55932;48.702;8.884;2022-10-31T19:30:02;96100;;;13.9;69.5
68891;BME280;55932;48.702;8.884;2022-10-31T19:32:33;96100;;;13.7;69.5
68891;BME280;55932;48.702;8.884;2022-10-31T19:35:03;96090;;;13.7;69.5
68891;BME280;55932;48.702;8.884;2022-10-31T19:37:34;96100;;;13.6;69.5
68891;BME280;55932;48.702;8.884;2022-10-31T19:40:05;96110;;;13.5;70
68891;BME280;55932;48.702;8.884;2022-10-31T19:42:35;96090;;;13.2;70.5
68891;BME280;55932;48.702;8.884;2022-10-31T19:47:35;96100;;;12.9;70.5
68891;BME280;55932;48.702;8.884;2022-10-31T19:55:07;96130;;;12.4;71
68891;BME280;55932;48.702;8.884;2022-10-31T20:00:19;96120;;;13;70.5
68891;BME280;55932;48.702;8.884;2022-10-31T20:02:49;96120;;;13.3;70
68891;BME280;55932;48.702;8.884;2022-10-31T20:05:19;96130;;;13.4;70
68891;BME280;55932;48.702;8.884;2022-10-31T20:10:08;96130;;;13.7;69.5
68891;BME280;55932;48.702;8.884;2022-10-31T20:12:38;96120;;;13.9;69.5
68891;BME280;55932;48.702;8.884;2022-10-31T20:20:10;96110;;;14;69.5
68891;BME280;55932;48.702;8.884;2022-10-31T20:22:41;96110;;;14.2;69.5
68891;BME280;55932;48.702;8.884;2022-10-31T20:25:11;96110;;;14.1;69.5
68891;BME280;55932;48.702;8.884;2022-10-31T20:30:24;96110;;;13.8;69.5
68891;BME280;55932;48.702;8.884;2022-10-31T20:35:24;96100;;;13.5;70
68891;BME280;55932;48.702;8.884;2022-10-31T20:37:55;96100;;;13.4;70.5
68891;BME280;55932;48.702;8.884;2022-10-31T20:40:24;96100;;;13.2;70.5
68891;BME280;55932;48.702;8.884;2022-10-31T20:42:54;96100;;;13;70.5